sensor_id;sensor_type;location;lat;lon;timestamp;pressure;altitude;pressure_sealevel;temperature;humidity
39051;BME280;24805;55.852;37.644;2023-06-26T00:02:15;99264.84;;;20.06;47.08
39051;BME280;24805;55.852;37.644;2023-06-26T00:07:17;99257.25;;;20.03;46.87
39051;BME280;24805;55.852;37.644;2023-06-26T00:12:19;99246.56;;;19.91;47.48
39051;BME280;24805;55.852;37.644;2023-06-26T00:17:21;99268.25;;;20.01;47.24
39051;BME280;24805;55.852;37.644;2023-06-26T00:22:23;99265.75;;;19.94;47.59
39051;BME280;24805;55.852;37.644;2023-06-26T00:27:26;99268.59;;;19.88;47.44
39051;BME280;24805;55.852;37.644;2023-06-26T00:32:28;99256.09;;;19.82;47.29
39051;BME280;24805;55.852;37.644;2023-06-26T00:37:30;99255.50;;;19.80;47.55
39051;BME280;24805;55.852;37.644;2023-06-26T00:42:33;99260.59;;;19.76;47.55
39051;BME280;24805;55.852;37.644;2023-06-26T00:47:36;99256.28;;;19.75;47.49
39051;BME280;24805;55.852;37.644;2023-06-26T00:52:38;99245.66;;;19.69;47.42
39051;BME280;24805;55.852;37.644;2023-06-26T00:57:41;99244.25;;;19.66;47.43
39051;BME280;24805;55.852;37.644;2023-06-26T01:02:44;99250.44;;;19.67;47.39
39051;BME280;24805;55.852;37.644;2023-06-26T01:07:49;99247.19;;;19.65;47.51
39051;BME280;24805;55.852;37.644;2023-06-26T01:12:53;99239.34;;;19.63;47.55
39051;BME280;24805;55.852;37.644;2023-06-26T01:17:57;99254.44;;;19.64;47.49
39051;BME280;24805;55.852;37.644;2023-06-26T01:28:14;99257.03;;;19.59;47.44
39051;BME280;24805;55.852;37.644;2023-06-26T01:33:18;99253.22;;;19.55;47.35
39051;BME280;24805;55.852;37.644;2023-06-26T01:38:21;99251.59;;;19.54;47.23
39051;BME280;24805;55.852;37.644;2023-06-26T01:48:40;99251.13;;;19.74;47.12
39051;BME280;24805;55.852;37.644;2023-06-26T01:53:46;99245.66;;;19.69;47.05
39051;BME280;24805;55.852;37.644;2023-06-26T01:58:54;99250.06;;;19.75;46.96
39051;BME280;24805;55.852;37.644;2023-06-26T02:03:57;99261.72;;;19.80;46.93
39051;BME280;24805;55.852;37.644;2023-06-26T02:08:59;99251.03;;;19.85;46.96
39051;BME280;24805;55.852;37.644;2023-06-26T02:14:04;99251.13;;;19.90;46.73
39051;BME280;24805;55.852;37.644;2023-06-26T02:19:06;99254.53;;;19.86;46.91
39051;BME280;24805;55.852;37.644;2023-06-26T02:24:29;99257.81;;;19.88;47.10
39051;BME280;24805;55.852;37.644;2023-06-26T02:29:32;99252.91;;;19.85;47.27
39051;BME280;24805;55.852;37.644;2023-06-26T02:34:35;99264.75;;;19.84;47.30
39051;BME280;24805;55.852;37.644;2023-06-26T02:39:37;99259.34;;;19.84;47.50
39051;BME280;24805;55.852;37.644;2023-06-26T02:44:41;99260.50;;;19.88;47.12
39051;BME280;24805;55.852;37.644;2023-06-26T02:49:43;99258.72;;;19.93;47.18
39051;BME280;24805;55.852;37.644;2023-06-26T02:54:46;99261.06;;;20.07;46.66
39051;BME280;24805;55.852;37.644;2023-06-26T02:59:48;99264.31;;;20.25;46.11
39051;BME280;24805;55.852;37.644;2023-06-26T03:04:50;99268.00;;;20.36;46.23
39051;BME280;24805;55.852;37.644;2023-06-26T03:09:54;99259.03;;;20.47;45.97
39051;BME280;24805;55.852;37.644;2023-06-26T03:14:57;99266.50;;;20.62;45.53
39051;BME280;24805;55.852;37.644;2023-06-26T03:19:59;99265.91;;;20.77;45.53
39051;BME280;24805;55.852;37.644;2023-06-26T03:25:13;99264.47;;;20.91;45.06
39051;BME280;24805;55.852;37.644;2023-06-26T03:30:16;99267.03;;;21.03;44.91
39051;BME280;24805;55.852;37.644;2023-06-26T03:35:20;99259.75;;;21.25;44.53
39051;BME280;24805;55.852;37.644;2023-06-26T03:40:23;99258.22;;;21.56;43.62
39051;BME280;24805;55.852;37.644;2023-06-26T03:45:25;99254.09;;;21.80;43.08
39051;BME280;24805;55.852;37.644;2023-06-26T03:50:29;99256.53;;;22.09;42.18
39051;BME280;24805;55.852;37.644;2023-06-26T03:55:31;99252.13;;;22.40;41.89
39051;BME280;24805;55.852;37.644;2023-06-26T04:00:34;99252.81;;;22.62;41.28
39051;BME280;24805;55.852;37.644;2023-06-26T04:05:36;99255.63;;;22.77;40.89
39051;BME280;24805;55.852;37.644;2023-06-26T04:10:38;99248.59;;;22.81;41.00
39051;BME280;24805;55.852;37.644;2023-06-26T04:15:41;99249.97;;;22.84;40.64
39051;BME280;24805;55.852;37.644;2023-06-26T04:21:07;99245.22;;;23.16;40.37
39051;BME280;24805;55.852;37.644;2023-06-26T04:26:09;99254.03;;;22.86;40.21
39051;BME280;24805;55.852;37.644;2023-06-26T04:31:15;99248.66;;;22.91;39.63
39051;BME280;24805;55.852;37.644;2023-06-26T04:36:17;99251.38;;;22.96;39.20
39051;BME280;24805;55.852;37.644;2023-06-26T04:41:19;99251.16;;;23.08;39.83
39051;BME280;24805;55.852;37.644;2023-06-26T04:46:22;99246.84;;;23.22;39.56
39051;BME280;24805;55.852;37.644;2023-06-26T04:51:25;99245.81;;;23.33;39.42
39051;BME280;24805;55.852;37.644;2023-06-26T04:56:28;99245.28;;;23.42;38.94
39051;BME280;24805;55.852;37.644;2023-06-26T05:01:32;99235.88;;;23.54;39.40
39051;BME280;24805;55.852;37.644;2023-06-26T05:06:35;99230.13;;;23.51;39.43
39051;BME280;24805;55.852;37.644;2023-06-26T05:11:37;99237.22;;;23.62;39.09
39051;BME280;24805;55.852;37.644;2023-06-26T05:16:39;99237.78;;;23.69;38.69
39051;BME280;24805;55.852;37.644;2023-06-26T05:21:41;99238.06;;;23.78;39.13
39051;BME280;24805;55.852;37.644;2023-06-26T05:26:44;99235.59;;;23.81;39.15
39051;BME280;24805;55.852;37.644;2023-06-26T05:31:47;99232.34;;;24.10;38.45
39051;BME280;24805;55.852;37.644;2023-06-26T05:36:51;99224.75;;;24.17;36.95
39051;BME280;24805;55.852;37.644;2023-06-26T05:41:54;99229.53;;;24.70;35.96
39051;BME280;24805;55.852;37.644;2023-06-26T05:46:56;99231.91;;;25.81;34.55
39051;BME280;24805;55.852;37.644;2023-06-26T05:51:58;99226.28;;;27.06;32.31
39051;BME280;24805;55.852;37.644;2023-06-26T05:57:00;99225.31;;;28.24;29.81
39051;BME280;24805;55.852;37.644;2023-06-26T06:02:04;99237.09;;;28.93;28.25
39051;BME280;24805;55.852;37.644;2023-06-26T06:07:06;99235.63;;;29.23;27.13
39051;BME280;24805;55.852;37.644;2023-06-26T06:12:09;99230.72;;;29.47;26.57
39051;BME280;24805;55.852;37.644;2023-06-26T06:17:11;99221.53;;;29.65;26.02
39051;BME280;24805;55.852;37.644;2023-06-26T06:22:14;99223.69;;;30.22;24.82
39051;BME280;24805;55.852;37.644;2023-06-26T06:27:16;99222.00;;;30.65;24.75
39051;BME280;24805;55.852;37.644;2023-06-26T06:32:18;99232.16;;;31.65;23.17
39051;BME280;24805;55.852;37.644;2023-06-26T06:37:20;99211.31;;;32.07;22.65
39051;BME280;24805;55.852;37.644;2023-06-26T06:42:23;99209.41;;;31.81;21.40
39051;BME280;24805;55.852;37.644;2023-06-26T06:47:25;99208.28;;;31.48;21.55
39051;BME280;24805;55.852;37.644;2023-06-26T06:52:28;99208.81;;;31.67;21.21
39051;BME280;24805;55.852;37.644;2023-06-26T06:57:30;99213.94;;;32.50;21.33
39051;BME280;24805;55.852;37.644;2023-06-26T07:02:33;99212.28;;;32.96;19.95
39051;BME280;24805;55.852;37.644;2023-06-26T07:07:36;99213.66;;;32.72;20.37
39051;BME280;24805;55.852;37.644;2023-06-26T07:12:38;99200.53;;;33.91;20.65
39051;BME280;24805;55.852;37.644;2023-06-26T07:17:40;99198.75;;;35.69;18.35
39051;BME280;24805;55.852;37.644;2023-06-26T07:22:43;99195.47;;;36.38;17.74
39051;BME280;24805;55.852;37.644;2023-06-26T07:27:47;99195.41;;;36.35;17.34
39051;BME280;24805;55.852;37.644;2023-06-26T07:32:49;99189.69;;;36.12;17.15
39051;BME280;24805;55.852;37.644;2023-06-26T07:37:51;99197.81;;;37.38;16.54
39051;BME280;24805;55.852;37.644;2023-06-26T07:42:53;99187.94;;;37.98;15.92
39051;BME280;24805;55.852;37.644;2023-06-26T07:47:55;99176.41;;;38.87;14.17
39051;BME280;24805;55.852;37.644;2023-06-26T07:52:57;99179.53;;;37.14;15.01
39051;BME280;24805;55.852;37.644;2023-06-26T07:58:00;99185.47;;;36.18;15.87
39051;BME280;24805;55.852;37.644;2023-06-26T08:03:03;99172.25;;;35.80;16.17
39051;BME280;24805;55.852;37.644;2023-06-26T08:08:06;99171.41;;;36.07;16.22
39051;BME280;24805;55.852;37.644;2023-06-26T08:13:08;99172.78;;;38.34;14.51
39051;BME280;24805;55.852;37.644;2023-06-26T08:18:11;99166.84;;;39.11;13.62
39051;BME280;24805;55.852;37.644;2023-06-26T08:23:13;99163.50;;;39.99;13.33
39051;BME280;24805;55.852;37.644;2023-06-26T08:28:15;99165.13;;;42.11;12.55
39051;BME280;24805;55.852;37.644;2023-06-26T08:33:17;99162.94;;;40.71;12.59
39051;BME280;24805;55.852;37.644;2023-06-26T08:38:19;99166.41;;;37.11;14.20
39051;BME280;24805;55.852;37.644;2023-06-26T08:43:23;99172.88;;;34.44;17.66
39051;BME280;24805;55.852;37.644;2023-06-26T08:48:25;99167.00;;;34.58;17.95
39051;BME280;24805;55.852;37.644;2023-06-26T08:53:46;99168.31;;;35.37;17.53
39051;BME280;24805;55.852;37.644;2023-06-26T08:58:51;99162.41;;;36.57;16.13
39051;BME280;24805;55.852;37.644;2023-06-26T09:03:53;99153.50;;;36.99;15.75
39051;BME280;24805;55.852;37.644;2023-06-26T09:08:55;99151.56;;;39.58;14.09
39051;BME280;24805;55.852;37.644;2023-06-26T09:13:59;99151.38;;;41.35;12.93
39051;BME280;24805;55.852;37.644;2023-06-26T09:19:01;99145.38;;;41.29;11.89
39051;BME280;24805;55.852;37.644;2023-06-26T09:24:03;99145.88;;;40.25;12.20
39051;BME280;24805;55.852;37.644;2023-06-26T09:29:07;99148.59;;;37.47;14.05
39051;BME280;24805;55.852;37.644;2023-06-26T09:34:10;99143.63;;;35.56;15.07
39051;BME280;24805;55.852;37.644;2023-06-26T09:39:12;99135.16;;;36.72;15.01
39051;BME280;24805;55.852;37.644;2023-06-26T09:44:16;99134.63;;;37.20;13.80
39051;BME280;24805;55.852;37.644;2023-06-26T09:49:18;99132.81;;;37.28;14.11
39051;BME280;24805;55.852;37.644;2023-06-26T09:54:21;99137.22;;;36.28;14.74
39051;BME280;24805;55.852;37.644;2023-06-26T09:59:23;99122.16;;;34.45;15.94
39051;BME280;24805;55.852;37.644;2023-06-26T10:04:26;99133.34;;;33.26;16.72
39051;BME280;24805;55.852;37.644;2023-06-26T10:09:29;99127.22;;;32.99;17.34
39051;BME280;24805;55.852;37.644;2023-06-26T10:14:37;99138.47;;;33.06;17.88
39051;BME280;24805;55.852;37.644;2023-06-26T10:19:42;99128.84;;;32.41;18.41
39051;BME280;24805;55.852;37.644;2023-06-26T10:24:45;99131.66;;;31.60;19.14
39051;BME280;24805;55.852;37.644;2023-06-26T10:29:57;99115.13;;;31.31;19.37
39051;BME280;24805;55.852;37.644;2023-06-26T10:35:02;99124.13;;;31.05;19.35
39051;BME280;24805;55.852;37.644;2023-06-26T10:40:05;99114.81;;;31.32;18.97
39051;BME280;24805;55.852;37.644;2023-06-26T10:45:20;99116.09;;;33.16;17.22
39051;BME280;24805;55.852;37.644;2023-06-26T10:50:25;99100.53;;;35.96;15.09
39051;BME280;24805;55.852;37.644;2023-06-26T10:55:28;99097.72;;;37.51;13.70
39051;BME280;24805;55.852;37.644;2023-06-26T11:00:31;99095.44;;;37.57;13.59
39051;BME280;24805;55.852;37.644;2023-06-26T11:05:34;99095.31;;;36.73;14.01
39051;BME280;24805;55.852;37.644;2023-06-26T11:10:50;99098.38;;;37.06;14.30
39051;BME280;24805;55.852;37.644;2023-06-26T11:15:55;99086.88;;;37.04;13.77
39051;BME280;24805;55.852;37.644;2023-06-26T11:21:21;99091.03;;;37.98;12.95
39051;BME280;24805;55.852;37.644;2023-06-26T11:26:23;99085.34;;;37.45;13.12
39051;BME280;24805;55.852;37.644;2023-06-26T11:31:33;99103.66;;;37.73;13.84
39051;BME280;24805;55.852;37.644;2023-06-26T11:36:35;99099.09;;;38.30;14.07
39051;BME280;24805;55.852;37.644;2023-06-26T11:41:40;99093.13;;;37.82;14.16
39051;BME280;24805;55.852;37.644;2023-06-26T11:46:42;99081.78;;;38.63;14.58
39051;BME280;24805;55.852;37.644;2023-06-26T11:51:46;99082.66;;;40.08;14.00
39051;BME280;24805;55.852;37.644;2023-06-26T11:56:55;99073.09;;;40.56;12.93
39051;BME280;24805;55.852;37.644;2023-06-26T12:02:04;99069.75;;;39.45;13.83
39051;BME280;24805;55.852;37.644;2023-06-26T12:07:08;99068.47;;;37.96;14.60
39051;BME280;24805;55.852;37.644;2023-06-26T12:12:13;99056.06;;;38.36;15.12
39051;BME280;24805;55.852;37.644;2023-06-26T12:17:16;99049.56;;;39.11;13.80
39051;BME280;24805;55.852;37.644;2023-06-26T12:22:18;99048.66;;;40.94;12.62
39051;BME280;24805;55.852;37.644;2023-06-26T12:27:21;99029.59;;;42.81;11.00
39051;BME280;24805;55.852;37.644;2023-06-26T12:32:24;99037.88;;;43.72;10.90
39051;BME280;24805;55.852;37.644;2023-06-26T12:37:28;99022.41;;;44.46;10.36
39051;BME280;24805;55.852;37.644;2023-06-26T12:42:33;99030.69;;;44.90;9.82
39051;BME280;24805;55.852;37.644;2023-06-26T12:47:35;99011.94;;;44.16;9.07
39051;BME280;24805;55.852;37.644;2023-06-26T12:52:40;99017.44;;;42.11;10.33
39051;BME280;24805;55.852;37.644;2023-06-26T12:57:42;99019.81;;;41.59;10.59
39051;BME280;24805;55.852;37.644;2023-06-26T13:02:44;99004.22;;;42.40;9.97
39051;BME280;24805;55.852;37.644;2023-06-26T13:07:47;99004.56;;;40.96;11.33
39051;BME280;24805;55.852;37.644;2023-06-26T13:12:50;99008.50;;;38.07;13.14
39051;BME280;24805;55.852;37.644;2023-06-26T13:17:52;99011.72;;;35.03;15.81
39051;BME280;24805;55.852;37.644;2023-06-26T13:22:55;99010.66;;;33.00;17.58
39051;BME280;24805;55.852;37.644;2023-06-26T13:27:57;99000.81;;;31.78;18.58
39051;BME280;24805;55.852;37.644;2023-06-26T13:32:59;98989.56;;;31.07;19.42
39051;BME280;24805;55.852;37.644;2023-06-26T13:38:01;98995.00;;;30.21;20.81
39051;BME280;24805;55.852;37.644;2023-06-26T13:43:04;98993.06;;;29.64;21.40
39051;BME280;24805;55.852;37.644;2023-06-26T13:48:06;98987.44;;;29.38;22.21
39051;BME280;24805;55.852;37.644;2023-06-26T13:53:08;98988.63;;;29.46;21.70
39051;BME280;24805;55.852;37.644;2023-06-26T13:58:11;98980.69;;;29.36;21.45
39051;BME280;24805;55.852;37.644;2023-06-26T14:03:15;98975.78;;;29.16;21.28
39051;BME280;24805;55.852;37.644;2023-06-26T14:08:17;98968.63;;;29.06;21.24
39051;BME280;24805;55.852;37.644;2023-06-26T14:13:19;98968.75;;;29.01;22.07
39051;BME280;24805;55.852;37.644;2023-06-26T14:18:24;98957.09;;;29.09;22.29
39051;BME280;24805;55.852;37.644;2023-06-26T14:23:27;98966.13;;;29.18;22.63
39051;BME280;24805;55.852;37.644;2023-06-26T14:28:29;98948.47;;;29.24;22.35
39051;BME280;24805;55.852;37.644;2023-06-26T14:33:31;98951.81;;;29.43;22.35
39051;BME280;24805;55.852;37.644;2023-06-26T14:38:34;98949.50;;;29.68;22.03
39051;BME280;24805;55.852;37.644;2023-06-26T14:43:36;98941.78;;;29.78;21.58
39051;BME280;24805;55.852;37.644;2023-06-26T14:48:38;98949.69;;;29.80;21.30
39051;BME280;24805;55.852;37.644;2023-06-26T14:53:41;98935.06;;;29.85;21.80
39051;BME280;24805;55.852;37.644;2023-06-26T14:58:43;98924.75;;;29.81;20.79
39051;BME280;24805;55.852;37.644;2023-06-26T15:03:48;98921.53;;;29.71;21.30
39051;BME280;24805;55.852;37.644;2023-06-26T15:08:51;98925.03;;;29.63;21.09
39051;BME280;24805;55.852;37.644;2023-06-26T15:13:54;98919.25;;;29.56;21.98
39051;BME280;24805;55.852;37.644;2023-06-26T15:18:57;98921.00;;;29.52;21.30
39051;BME280;24805;55.852;37.644;2023-06-26T15:23:59;98917.41;;;29.42;21.68
39051;BME280;24805;55.852;37.644;2023-06-26T15:29:02;98917.06;;;29.35;21.85
39051;BME280;24805;55.852;37.644;2023-06-26T15:34:04;98907.13;;;29.39;21.51
39051;BME280;24805;55.852;37.644;2023-06-26T15:39:06;98919.84;;;29.44;22.02
39051;BME280;24805;55.852;37.644;2023-06-26T15:44:09;98934.38;;;28.77;24.03
39051;BME280;24805;55.852;37.644;2023-06-26T15:49:11;98941.50;;;27.93;26.10
39051;BME280;24805;55.852;37.644;2023-06-26T15:54:13;98936.38;;;27.04;26.88
39051;BME280;24805;55.852;37.644;2023-06-26T15:59:15;98945.66;;;26.52;28.07
39051;BME280;24805;55.852;37.644;2023-06-26T16:04:20;98936.09;;;25.98;30.18
39051;BME280;24805;55.852;37.644;2023-06-26T16:09:24;98941.97;;;25.62;29.16
39051;BME280;24805;55.852;37.644;2023-06-26T16:14:26;98950.50;;;25.51;29.07
39051;BME280;24805;55.852;37.644;2023-06-26T16:19:28;98944.34;;;25.40;29.46
39051;BME280;24805;55.852;37.644;2023-06-26T16:24:30;98943.34;;;25.36;28.81
39051;BME280;24805;55.852;37.644;2023-06-26T16:29:33;98919.28;;;25.24;29.07
39051;BME280;24805;55.852;37.644;2023-06-26T16:34:35;98951.47;;;25.36;28.77
39051;BME280;24805;55.852;37.644;2023-06-26T16:39:37;98946.94;;;25.26;28.28
39051;BME280;24805;55.852;37.644;2023-06-26T16:44:40;98949.91;;;25.30;28.49
39051;BME280;24805;55.852;37.644;2023-06-26T16:49:43;98951.75;;;25.34;28.94
39051;BME280;24805;55.852;37.644;2023-06-26T16:54:45;98957.34;;;25.43;27.87
39051;BME280;24805;55.852;37.644;2023-06-26T16:59:48;98961.13;;;25.47;28.56
39051;BME280;24805;55.852;37.644;2023-06-26T17:04:50;98936.19;;;25.40;27.88
39051;BME280;24805;55.852;37.644;2023-06-26T17:09:52;98957.31;;;25.48;27.90
39051;BME280;24805;55.852;37.644;2023-06-26T17:14:54;98960.31;;;25.47;28.05
39051;BME280;24805;55.852;37.644;2023-06-26T17:19:56;98960.72;;;25.35;28.27
39051;BME280;24805;55.852;37.644;2023-06-26T17:25:00;98972.50;;;25.20;28.31
39051;BME280;24805;55.852;37.644;2023-06-26T17:30:07;98974.03;;;25.02;29.01
39051;BME280;24805;55.852;37.644;2023-06-26T17:35:09;98971.69;;;24.91;29.50
39051;BME280;24805;55.852;37.644;2023-06-26T17:40:11;98968.81;;;24.77;30.06
39051;BME280;24805;55.852;37.644;2023-06-26T17:45:14;98977.56;;;24.69;30.30
39051;BME280;24805;55.852;37.644;2023-06-26T17:50:16;98966.47;;;24.60;30.75
39051;BME280;24805;55.852;37.644;2023-06-26T17:55:18;98969.56;;;24.49;31.09
39051;BME280;24805;55.852;37.644;2023-06-26T18:00:20;98972.38;;;24.33;31.29
39051;BME280;24805;55.852;37.644;2023-06-26T18:05:22;98983.25;;;24.18;31.45
39051;BME280;24805;55.852;37.644;2023-06-26T18:10:25;98975.75;;;24.00;31.71
39051;BME280;24805;55.852;37.644;2023-06-26T18:15:27;98977.72;;;23.89;32.12
39051;BME280;24805;55.852;37.644;2023-06-26T18:20:30;98973.94;;;23.80;33.01
39051;BME280;24805;55.852;37.644;2023-06-26T18:25:34;98978.03;;;23.78;33.25
39051;BME280;24805;55.852;37.644;2023-06-26T18:30:36;98969.66;;;23.74;33.50
39051;BME280;24805;55.852;37.644;2023-06-26T18:35:39;98972.38;;;23.74;33.79
39051;BME280;24805;55.852;37.644;2023-06-26T18:40:42;98969.66;;;23.69;33.81
39051;BME280;24805;55.852;37.644;2023-06-26T18:45:44;98973.19;;;23.64;33.61
39051;BME280;24805;55.852;37.644;2023-06-26T18:50:47;98976.75;;;23.55;34.25
39051;BME280;24805;55.852;37.644;2023-06-26T18:55:49;98969.19;;;23.52;34.75
39051;BME280;24805;55.852;37.644;2023-06-26T19:00:52;98964.28;;;23.49;34.81
39051;BME280;24805;55.852;37.644;2023-06-26T19:05:54;98976.47;;;23.41;35.43
39051;BME280;24805;55.852;37.644;2023-06-26T19:10:56;98974.34;;;23.33;34.88
39051;BME280;24805;55.852;37.644;2023-06-26T19:15:59;98970.00;;;23.27;35.10
39051;BME280;24805;55.852;37.644;2023-06-26T19:21:02;98978.94;;;23.22;35.09
39051;BME280;24805;55.852;37.644;2023-06-26T19:26:04;98978.69;;;23.24;35.22
39051;BME280;24805;55.852;37.644;2023-06-26T19:31:08;98976.25;;;23.22;35.05
39051;BME280;24805;55.852;37.644;2023-06-26T19:36:12;98981.66;;;23.27;35.72
39051;BME280;24805;55.852;37.644;2023-06-26T19:41:16;98975.69;;;23.20;35.16
39051;BME280;24805;55.852;37.644;2023-06-26T19:46:18;98980.06;;;23.11;35.73
39051;BME280;24805;55.852;37.644;2023-06-26T19:51:21;98975.19;;;23.03;36.34
39051;BME280;24805;55.852;37.644;2023-06-26T19:56:23;98979.53;;;22.89;36.81
39051;BME280;24805;55.852;37.644;2023-06-26T20:01:27;98984.63;;;22.70;37.27
39051;BME280;24805;55.852;37.644;2023-06-26T20:06:34;98984.34;;;22.56;37.28
39051;BME280;24805;55.852;37.644;2023-06-26T20:11:37;98979.72;;;22.42;37.73
39051;BME280;24805;55.852;37.644;2023-06-26T20:16:40;98975.38;;;22.30;38.02
39051;BME280;24805;55.852;37.644;2023-06-26T20:21:42;98955.34;;;22.21;38.14
39051;BME280;24805;55.852;37.644;2023-06-26T20:26:44;98960.22;;;22.24;38.25
39051;BME280;24805;55.852;37.644;2023-06-26T20:31:47;98963.44;;;22.21;38.21
39051;BME280;24805;55.852;37.644;2023-06-26T20:36:50;98962.91;;;22.19;38.02
39051;BME280;24805;55.852;37.644;2023-06-26T20:41:55;98966.41;;;22.20;38.28
39051;BME280;24805;55.852;37.644;2023-06-26T20:46:58;98962.06;;;22.04;38.57
39051;BME280;24805;55.852;37.644;2023-06-26T20:52:02;98973.34;;;21.95;38.73
39051;BME280;24805;55.852;37.644;2023-06-26T20:57:09;98975.47;;;21.88;39.03
39051;BME280;24805;55.852;37.644;2023-06-26T21:02:11;98971.66;;;21.79;39.07
39051;BME280;24805;55.852;37.644;2023-06-26T21:07:13;98977.56;;;21.71;39.31
39051;BME280;24805;55.852;37.644;2023-06-26T21:12:18;98975.38;;;21.68;39.27
39051;BME280;24805;55.852;37.644;2023-06-26T21:17:20;98967.16;;;21.43;40.32
39051;BME280;24805;55.852;37.644;2023-06-26T21:22:23;98982.16;;;21.23;41.05
39051;BME280;24805;55.852;37.644;2023-06-26T21:27:25;98980.19;;;21.14;41.34
39051;BME280;24805;55.852;37.644;2023-06-26T21:32:28;98976.94;;;21.12;41.33
39051;BME280;24805;55.852;37.644;2023-06-26T21:37:31;98968.78;;;21.07;41.71
39051;BME280;24805;55.852;37.644;2023-06-26T21:42:33;98967.13;;;21.01;42.09
39051;BME280;24805;55.852;37.644;2023-06-26T21:47:35;98953.31;;;20.92;42.39
39051;BME280;24805;55.852;37.644;2023-06-26T21:52:38;98953.78;;;20.84;42.25
39051;BME280;24805;55.852;37.644;2023-06-26T21:57:40;98951.84;;;20.74;42.83
39051;BME280;24805;55.852;37.644;2023-06-26T22:02:42;98955.00;;;20.66;42.48
39051;BME280;24805;55.852;37.644;2023-06-26T22:07:45;98957.34;;;20.57;43.19
39051;BME280;24805;55.852;37.644;2023-06-26T22:12:57;98958.31;;;20.46;43.71
39051;BME280;24805;55.852;37.644;2023-06-26T22:17:59;98953.66;;;20.37;43.98
39051;BME280;24805;55.852;37.644;2023-06-26T22:23:01;98947.56;;;20.24;44.28
39051;BME280;24805;55.852;37.644;2023-06-26T22:28:04;98944.22;;;20.12;44.53
39051;BME280;24805;55.852;37.644;2023-06-26T22:33:06;98949.22;;;20.04;44.99
39051;BME280;24805;55.852;37.644;2023-06-26T22:38:08;98944.88;;;19.98;45.04
39051;BME280;24805;55.852;37.644;2023-06-26T22:43:10;98951.25;;;19.91;45.48
39051;BME280;24805;55.852;37.644;2023-06-26T22:48:12;98944.41;;;19.84;45.33
39051;BME280;24805;55.852;37.644;2023-06-26T22:53:15;98947.59;;;19.81;45.48
39051;BME280;24805;55.852;37.644;2023-06-26T22:58:20;98945.97;;;19.80;45.54
39051;BME280;24805;55.852;37.644;2023-06-26T23:03:23;98947.00;;;19.74;45.58
39051;BME280;24805;55.852;37.644;2023-06-26T23:08:26;98942.88;;;19.66;45.52
39051;BME280;24805;55.852;37.644;2023-06-26T23:13:28;98953.31;;;19.63;45.50
39051;BME280;24805;55.852;37.644;2023-06-26T23:18:30;98947.59;;;19.59;46.10
39051;BME280;24805;55.852;37.644;2023-06-26T23:23:33;98950.00;;;19.55;46.00
39051;BME280;24805;55.852;37.644;2023-06-26T23:28:39;98955.31;;;19.50;46.03
39051;BME280;24805;55.852;37.644;2023-06-26T23:33:44;98943.56;;;19.56;46.29
39051;BME280;24805;55.852;37.644;2023-06-26T23:38:49;98948.44;;;19.43;46.10
39051;BME280;24805;55.852;37.644;2023-06-26T23:43:51;98941.63;;;19.35;46.24
39051;BME280;24805;55.852;37.644;2023-06-26T23:48:53;98952.16;;;19.37;45.90
39051;BME280;24805;55.852;37.644;2023-06-26T23:53:56;98942.69;;;19.34;45.85
39051;BME280;24805;55.852;37.644;2023-06-26T23:58:58;98958.25;;;19.32;45.84
